Kudat, Malaysia
Current Conditions -  °F | °C
As of 11:00 AM on Saturday 25 Oct 2014 (Local Time) from WBKT Reporting Station
Broken Clouds Broken Clouds  
Wind Chill: 86°   Ceiling: 28000
Heat Index: 97°   Visibility: 6mi
Dew Point: 77°   Wind: 3mph
Humidity: 74%   Direction: 70°ENE
Pressure: 29.88"   Gusts: NA
Location:  6.9°N, 116.84°E
Report Text: WBKT 250300Z 07003KT 9999 FEW015 BKN280 30/25 Q1012
Loading
Personal Weather Stations






























Interactive Weather Map
Tropical Storm Tracking
New forecast layout! Learn more

10-Day Weather Forecast

Advertisements
Track Severe Weather on mobile